createdAt,value
2018-07-03T00:00:17.668Z,16.81
2018-07-03T00:01:26.528Z,16.79
2018-07-03T00:02:35.387Z,16.81
2018-07-03T00:03:44.402Z,16.73
2018-07-03T00:04:53.546Z,16.7
2018-07-03T00:06:02.410Z,16.7
2018-07-03T00:07:12.101Z,16.71
2018-07-03T00:08:20.964Z,16.75
2018-07-03T00:09:29.825Z,16.7
2018-07-03T00:10:38.686Z,16.73
2018-07-03T00:11:47.553Z,16.71
2018-07-03T00:12:56.694Z,16.81
2018-07-03T00:14:05.558Z,16.82
2018-07-03T00:15:14.796Z,16.79
2018-07-03T00:16:23.937Z,16.85
2018-07-03T00:17:33.075Z,16.81
2018-07-03T00:18:41.940Z,16.75
2018-07-03T00:19:50.797Z,16.78
2018-07-03T00:20:59.711Z,16.71
2018-07-03T00:22:08.570Z,16.64
2018-07-03T00:23:17.434Z,16.67
2018-07-03T00:24:26.570Z,16.71
2018-07-03T00:25:35.710Z,16.56
2018-07-03T00:26:44.572Z,16.6
2018-07-03T00:27:53.431Z,16.57
2018-07-03T00:29:02.296Z,16.56
2018-07-03T00:30:11.158Z,16.56
2018-07-03T00:31:20.019Z,16.48
2018-07-03T00:32:28.879Z,16.53
2018-07-03T00:33:37.740Z,16.49
2018-07-03T00:34:46.614Z,16.5
2018-07-03T00:35:55.463Z,16.5
2018-07-03T00:37:04.602Z,16.39
2018-07-03T00:38:13.566Z,16.39
2018-07-03T00:39:22.702Z,16.39
2018-07-03T00:40:31.564Z,16.31
2018-07-03T00:41:40.427Z,16.21
2018-07-03T00:42:49.562Z,16.3
2018-07-03T00:43:58.423Z,16.27
2018-07-03T00:45:07.289Z,16.15
2018-07-03T00:46:16.160Z,16.01
2018-07-03T00:47:25.021Z,15.94
2018-07-03T00:48:33.879Z,15.96
2018-07-03T00:49:42.745Z,15.92
2018-07-03T00:50:51.882Z,15.9
2018-07-03T00:52:00.746Z,15.93
2018-07-03T00:53:09.983Z,15.92
2018-07-03T00:54:18.844Z,15.87
2018-07-03T00:55:28.034Z,15.94
2018-07-03T00:56:36.897Z,15.94
2018-07-03T00:57:45.755Z,15.93
2018-07-03T00:58:54.618Z,15.93
2018-07-03T01:00:03.757Z,15.94
2018-07-03T01:01:12.944Z,16
2018-07-03T01:02:21.803Z,15.94
2018-07-03T01:03:30.663Z,15.93
2018-07-03T01:04:39.529Z,15.83
2018-07-03T01:05:48.390Z,15.86
2018-07-03T01:06:57.401Z,15.8
2018-07-03T01:08:06.538Z,15.78
2018-07-03T01:09:15.399Z,15.68
2018-07-03T01:10:24.259Z,15.71
2018-07-03T01:11:33.120Z,15.67
2018-07-03T01:12:42.232Z,15.67
2018-07-03T01:13:51.100Z,15.5
2018-07-03T01:15:00.240Z,15.46
2018-07-03T01:16:09.103Z,15.43
2018-07-03T01:17:17.965Z,15.35
2018-07-03T01:18:26.973Z,15.27
2018-07-03T01:19:36.115Z,15.2
2018-07-03T01:20:45.251Z,15.19
2018-07-03T01:21:54.112Z,15.27
2018-07-03T01:23:03.525Z,15.27
2018-07-03T01:24:12.542Z,15.35
2018-07-03T01:25:21.396Z,15.36
2018-07-03T01:26:30.257Z,15.25
2018-07-03T01:27:39.170Z,15.35
2018-07-03T01:28:48.029Z,15.38
2018-07-03T01:29:57.239Z,15.43
2018-07-03T01:31:06.103Z,15.39
2018-07-03T01:32:14.962Z,15.43
2018-07-03T01:33:24.374Z,15.46
2018-07-03T01:34:33.237Z,15.39
2018-07-03T01:35:42.707Z,15.29
2018-07-03T01:36:51.568Z,15.29
2018-07-03T01:38:00.704Z,15.23
2018-07-03T01:39:09.570Z,15.25
2018-07-03T01:40:18.433Z,15.17
2018-07-03T01:41:27.674Z,15.11
2018-07-03T01:42:36.533Z,15.14
2018-07-03T01:43:45.393Z,15.14
2018-07-03T01:44:54.257Z,15.03
2018-07-03T01:46:03.389Z,14.95
2018-07-03T01:47:12.603Z,15.02
2018-07-03T01:48:21.742Z,15.03
2018-07-03T01:49:30.602Z,15.13
2018-07-03T01:50:39.463Z,15.21
2018-07-03T01:51:48.321Z,15.06
2018-07-03T01:52:57.331Z,15.03
2018-07-03T01:54:06.471Z,15.01
2018-07-03T01:55:15.332Z,14.96
2018-07-03T01:56:24.191Z,15.01
2018-07-03T01:57:33.328Z,14.91
2018-07-03T01:58:42.338Z,14.86
2018-07-03T01:59:51.474Z,14.89
2018-07-03T02:01:00.334Z,14.73
2018-07-03T02:02:09.470Z,14.81
2018-07-03T02:03:18.330Z,14.77
2018-07-03T02:04:27.238Z,14.8
2018-07-03T02:05:36.102Z,14.78
2018-07-03T02:06:44.968Z,14.83
2018-07-03T02:07:53.825Z,14.8
2018-07-03T02:09:02.685Z,14.83
2018-07-03T02:10:11.698Z,14.86
2018-07-03T02:11:20.881Z,14.89
2018-07-03T02:12:29.742Z,14.84
2018-07-03T02:13:38.609Z,14.8
2018-07-03T02:14:47.467Z,14.77
2018-07-03T02:15:56.581Z,14.69
2018-07-03T02:17:05.441Z,14.75
2018-07-03T02:18:14.302Z,14.69
2018-07-03T02:19:23.160Z,14.65
2018-07-03T02:20:32.023Z,14.64
2018-07-03T02:21:40.979Z,14.68
2018-07-03T02:22:49.842Z,14.61
2018-07-03T02:23:58.703Z,14.6
2018-07-03T02:25:07.560Z,14.77
2018-07-03T02:26:16.425Z,14.78
2018-07-03T02:27:25.615Z,14.77
2018-07-03T02:28:34.478Z,14.78
2018-07-03T02:29:43.616Z,14.86
2018-07-03T02:30:52.758Z,14.83
2018-07-03T02:32:01.897Z,14.8
2018-07-03T02:33:11.049Z,14.77
2018-07-03T02:34:20.195Z,14.64
2018-07-03T02:35:29.626Z,14.64
2018-07-03T02:36:38.762Z,14.52
2018-07-03T02:37:47.900Z,14.46
2018-07-03T02:38:57.666Z,14.45
2018-07-03T02:40:06.819Z,14.51
2018-07-03T02:41:15.683Z,14.5
2018-07-03T02:42:24.830Z,14.51
2018-07-03T02:43:33.700Z,14.52
2018-07-03T02:44:43.176Z,14.55
2018-07-03T02:45:52.319Z,14.51
2018-07-03T02:47:01.741Z,14.57
2018-07-03T02:48:10.882Z,14.61
2018-07-03T02:49:20.577Z,14.6
2018-07-03T02:50:29.998Z,14.61
2018-07-03T02:51:38.865Z,14.58
2018-07-03T02:52:47.728Z,14.54
2018-07-03T02:53:56.869Z,14.55
2018-07-03T02:55:05.731Z,14.57
2018-07-03T02:56:14.692Z,14.51
2018-07-03T02:57:23.826Z,14.45
2018-07-03T02:58:32.690Z,14.5
2018-07-03T02:59:42.112Z,14.36
2018-07-03T03:00:50.984Z,14.28
2018-07-03T03:02:00.275Z,14.37
2018-07-03T03:03:09.408Z,14.32
2018-07-03T03:04:18.549Z,14.32
2018-07-03T03:05:27.703Z,14.28
2018-07-03T03:06:37.241Z,14.27
2018-07-03T03:07:46.083Z,14.28
2018-07-03T03:08:55.237Z,14.28
2018-07-03T03:10:04.391Z,14.33
2018-07-03T03:11:13.254Z,14.29
2018-07-03T03:12:22.396Z,14.29
2018-07-03T03:13:31.812Z,14.35
2018-07-03T03:14:40.949Z,14.33
2018-07-03T03:15:50.369Z,14.33
2018-07-03T03:16:59.512Z,14.32
2018-07-03T03:18:08.377Z,14.32
2018-07-03T03:19:17.572Z,14.29
2018-07-03T03:20:26.997Z,14.35
2018-07-03T03:21:36.132Z,14.35
2018-07-03T03:22:45.269Z,14.32
2018-07-03T03:23:54.128Z,14.36
2018-07-03T03:25:02.989Z,14.32
2018-07-03T03:26:12.127Z,14.32
2018-07-03T03:27:20.992Z,14.29
2018-07-03T03:28:29.855Z,14.15
2018-07-03T03:29:38.712Z,14.22
2018-07-03T03:30:47.851Z,14.29
2018-07-03T03:31:56.713Z,14.29
2018-07-03T03:33:05.575Z,14.24
2018-07-03T03:34:14.433Z,14.18
2018-07-03T03:35:23.292Z,14.17
2018-07-03T03:36:32.251Z,14.22
2018-07-03T03:37:41.112Z,14.22
2018-07-03T03:38:49.970Z,14.25
2018-07-03T03:39:58.829Z,14.18
2018-07-03T03:41:07.971Z,14.2
2018-07-03T03:42:17.264Z,14.24
2018-07-03T03:43:26.126Z,14.09
2018-07-03T03:44:34.987Z,14.15
2018-07-03T03:45:43.851Z,14.14
2018-07-03T03:46:53.266Z,14.12
2018-07-03T03:48:02.377Z,14.2
2018-07-03T03:49:11.511Z,14.18
2018-07-03T03:50:20.377Z,14.18
2018-07-03T03:51:29.509Z,14.25
2018-07-03T03:52:38.369Z,14.29
2018-07-03T03:53:47.437Z,14.29
2018-07-03T03:54:56.660Z,14.22
2018-07-03T03:56:05.520Z,14.29
2018-07-03T03:57:14.383Z,14.27
2018-07-03T03:58:23.519Z,14.22
2018-07-03T03:59:32.583Z,14.29
2018-07-03T04:00:41.724Z,14.33
2018-07-03T04:01:50.860Z,14.33
2018-07-03T04:02:59.718Z,14.32
2018-07-03T04:04:08.578Z,14.36
2018-07-03T04:05:17.775Z,14.37
2018-07-03T04:06:27.187Z,14.37
2018-07-03T04:07:36.046Z,14.37
2018-07-03T04:08:44.909Z,14.45
2018-07-03T04:09:54.052Z,14.43
2018-07-03T04:11:02.965Z,14.42
2018-07-03T04:12:11.825Z,14.51
2018-07-03T04:13:20.683Z,14.52
2018-07-03T04:14:29.549Z,14.51
2018-07-03T04:15:38.413Z,14.46
2018-07-03T04:16:47.273Z,14.47
2018-07-03T04:17:56.132Z,14.52
2018-07-03T04:19:04.992Z,14.65
2018-07-03T04:20:13.850Z,14.65
2018-07-03T04:21:22.713Z,14.61
2018-07-03T04:22:31.574Z,14.58
2018-07-03T04:23:40.433Z,14.78
2018-07-03T04:24:49.573Z,14.62
2018-07-03T04:25:58.432Z,14.75
2018-07-03T04:27:07.295Z,14.73
2018-07-03T04:28:16.434Z,14.65
2018-07-03T04:29:25.575Z,14.8
2018-07-03T04:30:34.438Z,14.81
2018-07-03T04:31:43.297Z,14.91
2018-07-03T04:32:52.159Z,14.91
2018-07-03T04:34:01.312Z,14.89
2018-07-03T04:35:10.444Z,14.86
2018-07-03T04:36:19.308Z,14.94
2018-07-03T04:37:28.171Z,15.01
2018-07-03T04:38:37.031Z,14.99
2018-07-03T04:39:46.494Z,15.07
2018-07-03T04:40:55.631Z,15.11
2018-07-03T04:42:04.773Z,15.03
2018-07-03T04:43:13.633Z,15.09
2018-07-03T04:44:22.493Z,15.16
2018-07-03T04:45:31.607Z,15.28
2018-07-03T04:46:40.468Z,15.32
2018-07-03T04:47:49.663Z,15.29
2018-07-03T04:48:58.525Z,15.23
2018-07-03T04:50:07.664Z,15.21
2018-07-03T04:51:16.675Z,15.36
2018-07-03T04:52:25.533Z,15.32
2018-07-03T04:53:34.397Z,15.31
2018-07-03T04:54:43.538Z,15.43
2018-07-03T04:55:52.397Z,15.38
2018-07-03T04:57:01.357Z,15.53
2018-07-03T04:58:10.220Z,15.44
2018-07-03T04:59:19.085Z,15.57
2018-07-03T05:00:28.223Z,15.59
2018-07-03T05:01:37.086Z,15.68
2018-07-03T05:02:46.300Z,15.69
2018-07-03T05:03:55.157Z,15.75
2018-07-03T05:05:04.297Z,15.68
2018-07-03T05:06:13.711Z,15.78
2018-07-03T05:07:22.846Z,15.83
2018-07-03T05:08:32.056Z,15.78
2018-07-03T05:09:40.919Z,15.97
2018-07-03T05:10:49.785Z,15.93
2018-07-03T05:11:58.648Z,15.89
2018-07-03T05:13:07.521Z,16.05
2018-07-03T05:14:16.661Z,16.01
2018-07-03T05:15:25.803Z,16.08
2018-07-03T05:16:34.665Z,16.11
2018-07-03T05:17:43.535Z,16.07
2018-07-03T05:18:52.398Z,16.15
2018-07-03T05:20:01.269Z,16.21
2018-07-03T05:21:10.688Z,16.23
2018-07-03T05:22:19.558Z,16.38
2018-07-03T05:23:28.414Z,16.35
2018-07-03T05:24:37.282Z,16.45
2018-07-03T05:25:46.809Z,16.46
2018-07-03T05:26:55.674Z,16.49
2018-07-03T05:28:04.534Z,16.5
2018-07-03T05:29:13.399Z,16.61
2018-07-03T05:30:22.264Z,16.49
2018-07-03T05:31:31.211Z,16.46
2018-07-03T05:32:40.355Z,16.61
2018-07-03T05:33:49.501Z,16.63
2018-07-03T05:34:58.366Z,16.57
2018-07-03T05:36:07.228Z,16.58
2018-07-03T05:37:16.418Z,16.7
2018-07-03T05:38:25.667Z,16.71
2018-07-03T05:39:34.685Z,16.78
2018-07-03T05:40:43.824Z,16.78
2018-07-03T05:41:52.688Z,16.91
2018-07-03T05:43:01.558Z,16.83
2018-07-03T05:44:10.417Z,17
2018-07-03T05:45:19.380Z,16.88
2018-07-03T05:46:28.521Z,16.89
2018-07-03T05:47:37.660Z,16.91
2018-07-03T05:48:46.522Z,16.97
2018-07-03T05:49:55.385Z,16.97
2018-07-03T05:51:04.912Z,17.04
2018-07-03T05:52:13.772Z,17
2018-07-03T05:53:22.910Z,16.97
2018-07-03T05:54:32.048Z,17.07
2018-07-03T05:55:41.467Z,17.18
2018-07-03T05:56:50.382Z,17.08
2018-07-03T05:57:59.522Z,17.16
2018-07-03T05:59:08.386Z,17.14
2018-07-03T06:00:17.803Z,17.18
2018-07-03T06:01:26.667Z,17.16
2018-07-03T06:02:35.779Z,17.18
2018-07-03T06:03:44.921Z,17.16
2018-07-03T06:04:54.064Z,17.19
2018-07-03T06:06:02.922Z,17.19
2018-07-03T06:07:11.922Z,17.26
2018-07-03T06:08:20.649Z,17.37
2018-07-03T06:09:29.597Z,17.37
2018-07-03T06:10:38.818Z,17.46
2018-07-03T06:11:47.680Z,17.55
2018-07-03T06:12:57.122Z,17.52
2018-07-03T06:14:06.858Z,17.51
2018-07-03T06:15:15.723Z,17.54
2018-07-03T06:16:24.869Z,17.58
2018-07-03T06:17:33.735Z,17.63
2018-07-03T06:18:42.601Z,17.68
2018-07-03T06:19:51.562Z,17.64
2018-07-03T06:21:00.426Z,17.75
2018-07-03T06:22:09.294Z,17.66
2018-07-03T06:23:18.157Z,17.74
2018-07-03T06:24:27.021Z,17.78
2018-07-03T06:25:36.213Z,17.74
2018-07-03T06:26:45.357Z,17.77
2018-07-03T06:27:54.218Z,17.77
2018-07-03T06:29:03.215Z,17.92
2018-07-03T06:30:12.371Z,17.95
2018-07-03T06:31:21.659Z,17.89
2018-07-03T06:32:30.811Z,17.86
2018-07-03T06:33:39.676Z,18.02
2018-07-03T06:34:49.338Z,18
2018-07-03T06:35:58.202Z,18.03
2018-07-03T06:37:07.694Z,18.07
2018-07-03T06:38:16.557Z,18.1
2018-07-03T06:39:25.418Z,18.03
2018-07-03T06:40:34.285Z,18.14
2018-07-03T06:41:43.147Z,18.12
2018-07-03T06:42:52.212Z,18.15
2018-07-03T06:44:01.078Z,18.23
2018-07-03T06:45:09.937Z,18.23
2018-07-03T06:46:18.802Z,18.2
2018-07-03T06:47:27.735Z,18.18
2018-07-03T06:48:36.911Z,18.25
2018-07-03T06:49:45.777Z,18.17
2018-07-03T06:50:54.637Z,18.3
2018-07-03T06:52:03.500Z,18.3
2018-07-03T06:53:12.651Z,18.36
2018-07-03T06:54:21.867Z,18.39
2018-07-03T06:55:30.468Z,18.48
2018-07-03T06:56:39.332Z,18.55
2018-07-03T06:57:48.492Z,18.47
2018-07-03T06:58:57.634Z,18.58
2018-07-03T07:00:06.551Z,18.57
2018-07-03T07:01:15.412Z,18.66
2018-07-03T07:02:24.276Z,18.65
2018-07-03T07:03:33.141Z,18.75
2018-07-03T07:04:42.010Z,18.78
2018-07-03T07:05:51.026Z,18.87
2018-07-03T07:07:00.443Z,18.92
2018-07-03T07:08:09.307Z,18.94
2018-07-03T07:09:18.259Z,18.98
2018-07-03T07:10:27.967Z,19.06
2018-07-03T07:11:36.881Z,19.18
2018-07-03T07:12:45.745Z,19.28
2018-07-03T07:13:54.614Z,19.32
2018-07-03T07:15:03.929Z,19.39
2018-07-03T07:16:12.734Z,19.51
2018-07-03T07:17:22.221Z,19.62
2018-07-03T07:18:31.122Z,19.59
2018-07-03T07:19:40.229Z,19.69
2018-07-03T07:20:49.097Z,19.74
2018-07-03T07:21:58.234Z,19.73
2018-07-03T07:23:07.265Z,19.77
2018-07-03T07:24:16.431Z,19.88
2018-07-03T07:25:25.296Z,19.94
2018-07-03T07:26:34.161Z,20.06
2018-07-03T07:27:43.028Z,20.06
2018-07-03T07:28:52.343Z,20.05
2018-07-03T07:30:01.210Z,20.08
2018-07-03T07:31:10.353Z,20.08
2018-07-03T07:32:19.502Z,20.1
2018-07-03T07:33:28.645Z,20.21
2018-07-03T07:34:37.840Z,20.23
2018-07-03T07:35:47.270Z,20.23
2018-07-03T07:36:56.135Z,20.32
2018-07-03T07:38:05.000Z,20.38
2018-07-03T07:39:13.876Z,20.42
2018-07-03T07:40:23.077Z,20.38
2018-07-03T07:41:32.268Z,20.33
2018-07-03T07:42:41.476Z,20.35
2018-07-03T07:43:50.314Z,20.42
2018-07-03T07:44:59.181Z,20.48
2018-07-03T07:46:08.378Z,20.57
2018-07-03T07:47:17.246Z,20.61
2018-07-03T07:48:26.113Z,20.54
2018-07-03T07:49:34.979Z,20.5
2018-07-03T07:50:43.847Z,20.52
2018-07-03T07:51:52.766Z,20.58
2018-07-03T07:53:01.633Z,20.67
2018-07-03T07:54:10.779Z,20.73
2018-07-03T07:55:19.644Z,20.69
2018-07-03T07:56:28.916Z,20.72
2018-07-03T07:57:37.786Z,20.8
2018-07-03T07:58:46.670Z,20.77
2018-07-03T07:59:55.828Z,20.89
2018-07-03T08:01:10.205Z,20.95
2018-07-03T08:02:19.433Z,20.99
2018-07-03T08:03:28.347Z,20.91
2018-07-03T08:04:38.739Z,20.99
2018-07-03T08:05:50.760Z,20.97
2018-07-03T08:07:04.005Z,20.94
2018-07-03T08:08:16.189Z,21.04
2018-07-03T08:09:29.150Z,20.92
2018-07-03T08:10:43.954Z,20.94
2018-07-03T08:11:58.529Z,21.03
2018-07-03T08:13:11.032Z,20.92
2018-07-03T08:14:23.057Z,20.91
2018-07-03T08:15:33.210Z,20.85
2018-07-03T08:16:42.359Z,20.79
2018-07-03T08:17:51.505Z,20.79
2018-07-03T08:19:00.651Z,20.79
2018-07-03T08:20:09.715Z,20.82
2018-07-03T08:21:18.587Z,20.87
2018-07-03T08:22:27.454Z,20.84
2018-07-03T08:23:36.346Z,20.79
2018-07-03T08:24:45.215Z,20.84
2018-07-03T08:25:54.463Z,20.82
2018-07-03T08:27:03.350Z,20.76
2018-07-03T08:28:12.216Z,20.77
2018-07-03T08:29:21.361Z,20.73
2018-07-03T08:30:30.230Z,20.64
2018-07-03T08:31:39.467Z,20.69
2018-07-03T08:32:48.334Z,20.76
2018-07-03T08:33:57.204Z,20.7
2018-07-03T08:35:06.343Z,20.76
2018-07-03T08:36:15.205Z,20.79
2018-07-03T08:37:24.427Z,20.77
2018-07-03T08:38:33.572Z,20.79
2018-07-03T08:39:42.437Z,20.72
2018-07-03T08:40:51.303Z,20.67
2018-07-03T08:42:00.444Z,20.8
2018-07-03T08:43:09.701Z,20.85
2018-07-03T08:44:18.556Z,20.84
2018-07-03T08:45:27.700Z,20.72
2018-07-03T08:46:36.565Z,20.87
2018-07-03T08:47:45.428Z,20.8
2018-07-03T08:48:55.019Z,20.92
2018-07-03T08:50:03.889Z,20.89
2018-07-03T08:51:13.040Z,20.89
2018-07-03T08:52:22.528Z,20.94
2018-07-03T08:53:31.398Z,20.89
2018-07-03T08:54:40.615Z,20.89
2018-07-03T08:55:49.758Z,20.95
2018-07-03T08:56:58.640Z,20.99
2018-07-03T08:58:07.507Z,20.99
2018-07-03T08:59:16.370Z,20.95
2018-07-03T09:00:25.387Z,21.03
2018-07-03T09:01:34.534Z,21.07
2018-07-03T09:02:43.676Z,21.01
2018-07-03T09:03:52.569Z,21.06
2018-07-03T09:05:01.772Z,21.1
2018-07-03T09:06:10.691Z,21.07
2018-07-03T09:07:19.555Z,21.1
2018-07-03T09:08:28.421Z,21.14
2018-07-03T09:09:37.295Z,21.22
2018-07-03T09:10:46.432Z,21.24
2018-07-03T09:11:55.466Z,21.21
2018-07-03T09:13:05.057Z,21.22
2018-07-03T09:14:15.342Z,21.29
2018-07-03T09:15:24.657Z,21.31
2018-07-03T09:16:33.643Z,21.38
2018-07-03T09:17:43.084Z,21.4
2018-07-03T09:18:52.497Z,21.47
2018-07-03T09:20:01.502Z,21.54
2018-07-03T09:21:10.946Z,21.61
2018-07-03T09:22:20.387Z,21.64
2018-07-03T09:23:30.915Z,21.67
2018-07-03T09:24:40.544Z,21.68
2018-07-03T09:25:49.544Z,21.75
2018-07-03T09:26:58.957Z,21.67
2018-07-03T09:28:08.496Z,21.67
2018-07-03T09:29:17.680Z,21.88
2018-07-03T09:30:27.291Z,21.74
2018-07-03T09:31:36.964Z,21.77
2018-07-03T09:32:46.410Z,21.79
2018-07-03T09:33:55.517Z,21.86
2018-07-03T09:35:05.262Z,21.91
2018-07-03T09:36:14.329Z,21.9
2018-07-03T09:37:23.639Z,21.77
2018-07-03T09:38:33.293Z,21.9
2018-07-03T09:39:42.382Z,21.94
2018-07-03T09:40:51.453Z,21.96
2018-07-03T09:42:00.884Z,22
2018-07-03T09:43:10.531Z,21.99
2018-07-03T09:44:19.867Z,21.91
2018-07-03T09:45:29.902Z,21.98
2018-07-03T09:46:39.404Z,21.84
2018-07-03T09:47:49.230Z,21.98
2018-07-03T09:48:59.447Z,22.12
2018-07-03T09:50:08.585Z,22.18
2018-07-03T09:51:17.657Z,22.33
2018-07-03T09:52:27.327Z,22.18
2018-07-03T09:53:37.151Z,22.31
2018-07-03T09:54:46.533Z,22.31
2018-07-03T09:55:55.928Z,22.42
2018-07-03T09:57:05.311Z,22.43
2018-07-03T09:58:15.542Z,22.47
2018-07-03T09:59:24.999Z,22.45
2018-07-03T10:00:34.203Z,22.58
2018-07-03T10:01:43.067Z,22.45
2018-07-03T10:02:51.932Z,22.58
2018-07-03T10:04:01.130Z,22.57
2018-07-03T10:05:10.554Z,22.57
2018-07-03T10:06:19.423Z,22.57
2018-07-03T10:07:28.288Z,22.58
2018-07-03T10:08:37.153Z,22.67
2018-07-03T10:09:46.395Z,22.57
2018-07-03T10:10:55.820Z,22.49
2018-07-03T10:12:04.691Z,22.55
2018-07-03T10:13:13.555Z,22.58
2018-07-03T10:14:22.430Z,22.57
2018-07-03T10:15:31.587Z,22.65
2018-07-03T10:16:40.467Z,22.67
2018-07-03T10:17:49.625Z,22.67
2018-07-03T10:18:58.556Z,22.82
2018-07-03T10:20:07.372Z,22.91
2018-07-03T10:21:16.569Z,22.8
2018-07-03T10:22:25.710Z,22.77
2018-07-03T10:23:34.850Z,22.75
2018-07-03T10:24:43.715Z,22.75
2018-07-03T10:25:52.582Z,22.92
2018-07-03T10:27:01.600Z,22.92
2018-07-03T10:28:10.739Z,22.91
2018-07-03T10:29:19.884Z,23.05
2018-07-03T10:30:28.748Z,23.16
2018-07-03T10:31:37.613Z,23.17
2018-07-03T10:32:46.485Z,23.36
2018-07-03T10:33:55.352Z,23.35
2018-07-03T10:35:04.226Z,23.51
2018-07-03T10:36:13.089Z,23.36
2018-07-03T10:37:21.954Z,23.36
2018-07-03T10:38:31.172Z,23.38
2018-07-03T10:39:40.037Z,23.32
2018-07-03T10:40:49.000Z,23.61
2018-07-03T10:41:57.866Z,23.51
2018-07-03T10:43:07.064Z,23.57
2018-07-03T10:44:15.984Z,23.65
2018-07-03T10:45:25.127Z,23.66
2018-07-03T10:46:33.996Z,23.76
2018-07-03T10:47:42.861Z,23.83
2018-07-03T10:48:52.363Z,23.72
2018-07-03T10:50:01.530Z,23.79
2018-07-03T10:51:10.397Z,23.85
2018-07-03T10:52:19.264Z,23.73
2018-07-03T10:53:28.534Z,23.88
2018-07-03T10:54:37.401Z,23.73
2018-07-03T10:55:46.366Z,23.8
2018-07-03T10:56:55.510Z,23.65
2018-07-03T10:58:04.383Z,23.55
2018-07-03T10:59:13.536Z,23.65
2018-07-03T11:00:22.409Z,23.58
2018-07-03T11:01:31.425Z,23.63
2018-07-03T11:02:40.294Z,23.61
2018-07-03T11:03:49.438Z,23.65
2018-07-03T11:04:58.307Z,23.83
2018-07-03T11:06:07.453Z,23.7
2018-07-03T11:07:16.478Z,23.87
2018-07-03T11:08:25.905Z,23.97
2018-07-03T11:09:34.767Z,23.95
2018-07-03T11:10:43.632Z,23.94
2018-07-03T11:11:52.508Z,23.94
2018-07-03T11:13:01.468Z,24.09
2018-07-03T11:14:10.399Z,24.06
2018-07-03T11:15:19.873Z,24
2018-07-03T11:16:29.311Z,23.97
2018-07-03T11:17:38.523Z,24.06
2018-07-03T11:18:47.390Z,24.21
2018-07-03T11:19:56.342Z,24.16
2018-07-03T11:21:06.017Z,24.16
2018-07-03T11:22:14.885Z,24.39
2018-07-03T11:23:24.029Z,24.06
2018-07-03T11:24:33.143Z,24.39
2018-07-03T11:25:42.009Z,24.43
2018-07-03T11:26:50.880Z,24.25
2018-07-03T11:27:59.742Z,24.42
2018-07-03T11:29:08.619Z,24.4
2018-07-03T11:30:17.886Z,24.4
2018-07-03T11:31:26.753Z,24.43
2018-07-03T11:32:35.953Z,24.37
2018-07-03T11:33:45.629Z,24.5
2018-07-03T11:34:55.516Z,24.53
2018-07-03T11:36:04.556Z,24.73
2018-07-03T11:37:13.480Z,24.87
2018-07-03T11:38:22.346Z,25.14
2018-07-03T11:39:31.767Z,25.03
2018-07-03T11:40:40.637Z,25.14
2018-07-03T11:41:49.737Z,25.23
2018-07-03T11:42:58.633Z,25.21
2018-07-03T11:44:08.134Z,24.91
2018-07-03T11:45:17.002Z,24.78
2018-07-03T11:46:26.146Z,24.78
2018-07-03T11:47:35.074Z,24.98
2018-07-03T11:48:43.941Z,25.36
2018-07-03T11:49:53.082Z,25.28
2018-07-03T11:51:01.948Z,25.4
2018-07-03T11:52:11.087Z,25.54
2018-07-03T11:53:19.954Z,25.4
2018-07-03T11:54:28.821Z,25.5
2018-07-03T11:55:37.691Z,25.67
2018-07-03T11:56:46.837Z,25.82
2018-07-03T11:57:55.706Z,25.42
2018-07-03T11:59:04.851Z,25.51
2018-07-03T12:00:13.720Z,25.83
2018-07-03T12:01:22.617Z,26.05
2018-07-03T12:02:31.457Z,25.88
2018-07-03T12:03:40.324Z,26.12
2018-07-03T12:04:49.192Z,26.17
2018-07-03T12:05:58.059Z,26.32
2018-07-03T12:07:06.927Z,26.29
2018-07-03T12:08:16.073Z,26.35
2018-07-03T12:09:24.947Z,26.43
2018-07-03T12:10:33.818Z,26.57
2018-07-03T12:11:42.965Z,26.89
2018-07-03T12:12:51.843Z,27.12
2018-07-03T12:14:00.720Z,27.32
2018-07-03T12:15:09.597Z,27.55
2018-07-03T12:16:18.744Z,27.46
2018-07-03T12:17:27.895Z,27.55
2018-07-03T12:18:37.021Z,27.77
2018-07-03T12:19:45.942Z,27.78
2018-07-03T12:20:55.368Z,27.84
2018-07-03T12:22:04.524Z,27.9
2018-07-03T12:23:13.953Z,27.9
2018-07-03T12:24:22.926Z,27.75
2018-07-03T12:25:31.815Z,27.24
2018-07-03T12:26:40.691Z,27.57
2018-07-03T12:27:49.570Z,27.74
2018-07-03T12:28:58.548Z,27.74
2018-07-03T12:30:07.757Z,27.75
2018-07-03T12:31:16.634Z,27.88
2018-07-03T12:32:25.511Z,28.02
2018-07-03T12:33:35.922Z,27.96
2018-07-03T12:34:45.117Z,28.17
2018-07-03T12:35:54.045Z,28.03
2018-07-03T12:37:02.920Z,28.36
2018-07-03T12:38:11.797Z,28.51
2018-07-03T12:39:20.675Z,28.19
2018-07-03T12:40:29.550Z,28.06
2018-07-03T12:41:38.575Z,28.4
2018-07-03T12:42:47.452Z,28.43
2018-07-03T12:43:56.332Z,28.58
2018-07-03T12:45:05.535Z,28.58
2018-07-03T12:46:14.410Z,28.71
2018-07-03T12:47:23.338Z,28.77
2018-07-03T12:48:32.215Z,28.68
2018-07-03T12:49:41.093Z,28.7
2018-07-03T12:50:49.966Z,28.74
2018-07-03T12:51:58.843Z,28.88
2018-07-03T12:53:07.769Z,28.8
2018-07-03T12:54:16.649Z,28.83
2018-07-03T12:55:25.916Z,29
2018-07-03T12:56:34.765Z,29.11
2018-07-03T12:57:43.647Z,29.08
2018-07-03T12:58:53.255Z,29.27
2018-07-03T13:00:02.134Z,29.31
2018-07-03T13:01:11.289Z,29.36
2018-07-03T13:02:20.912Z,29.46
2018-07-03T13:03:29.752Z,29.55
2018-07-03T13:04:38.879Z,29.51
2018-07-03T13:05:48.112Z,29.58
2018-07-03T13:06:57.004Z,29.63
2018-07-03T13:08:05.904Z,29.58
2018-07-03T13:09:15.141Z,29.86
2018-07-03T13:10:24.447Z,29.9
2018-07-03T13:11:33.325Z,30.07
2018-07-03T13:12:42.217Z,29.85
2018-07-03T13:13:51.098Z,30.02
2018-07-03T13:14:59.980Z,30.02
2018-07-03T13:16:08.917Z,30.1
2018-07-03T13:17:17.794Z,30.2
2018-07-03T13:18:26.682Z,30.29
2018-07-03T13:19:35.565Z,30.53
2018-07-03T13:20:44.445Z,30.45
2018-07-03T13:21:53.475Z,30.42
2018-07-03T13:23:02.352Z,30.23
2018-07-03T13:24:11.233Z,30.38
2018-07-03T13:25:20.112Z,30.6
2018-07-03T13:26:28.994Z,30.62
2018-07-03T13:27:38.230Z,30.61
2018-07-03T13:28:47.388Z,30.72
2018-07-03T13:29:56.317Z,30.62
2018-07-03T13:31:05.152Z,30.8
2018-07-03T13:32:14.311Z,30.55
2018-07-03T13:33:23.292Z,30.7
2018-07-03T13:34:32.454Z,30.67
2018-07-03T13:35:41.617Z,30.91
2018-07-03T13:36:50.777Z,30.86
2018-07-03T13:37:59.657Z,30.99
2018-07-03T13:39:08.891Z,31.16
2018-07-03T13:40:17.772Z,31.38
2018-07-03T13:41:26.928Z,31.01
2018-07-03T13:42:35.814Z,31.12
2018-07-03T13:43:44.692Z,31.16
2018-07-03T13:44:53.571Z,31.38
2018-07-03T13:46:02.454Z,31.32
2018-07-03T13:47:11.336Z,31.44
2018-07-03T13:48:20.349Z,31.65
2018-07-03T13:49:30.010Z,31.58
2018-07-03T13:50:39.320Z,31.38
2018-07-03T13:51:48.478Z,31.01
2018-07-03T13:52:57.365Z,31.13
2018-07-03T13:54:06.250Z,31.53
2018-07-03T13:55:15.132Z,31.44
2018-07-03T13:56:24.164Z,30.76
2018-07-03T13:57:33.050Z,31.12
2018-07-03T13:58:42.479Z,31.16
2018-07-03T13:59:51.638Z,31.57
2018-07-03T14:01:00.522Z,31.35
2018-07-03T14:02:09.557Z,31.63
2018-07-03T14:03:18.436Z,31.63
2018-07-03T14:04:27.318Z,31.62
2018-07-03T14:05:36.215Z,31.76
2018-07-03T14:06:45.380Z,31.76
2018-07-03T14:07:54.360Z,31.92
2018-07-03T14:09:03.244Z,31.96
2018-07-03T14:10:12.801Z,32
2018-07-03T14:11:22.123Z,32.21
2018-07-03T14:12:31.304Z,32.19
2018-07-03T14:13:40.821Z,32.1
2018-07-03T14:14:50.799Z,31.93
2018-07-03T14:16:00.309Z,32
2018-07-03T14:17:09.367Z,32.23
2018-07-03T14:18:18.248Z,32.29
2018-07-03T14:19:27.479Z,32.35
2018-07-03T14:20:36.359Z,32.56
2018-07-03T14:21:45.597Z,32.3
2018-07-03T14:22:54.768Z,32.51
2018-07-03T14:24:03.653Z,32.66
2018-07-03T14:25:12.533Z,32.79
2018-07-03T14:26:21.423Z,32.94
2018-07-03T14:27:30.294Z,33.06
2018-07-03T14:28:39.176Z,32.94
2018-07-03T14:29:48.057Z,32.99
2018-07-03T14:30:56.949Z,33.11
2018-07-03T14:32:06.390Z,33.04
2018-07-03T14:33:15.272Z,32.96
2018-07-03T14:34:24.156Z,32.97
2018-07-03T14:35:33.073Z,32.94
2018-07-03T14:36:42.008Z,32.85
2018-07-03T14:37:51.171Z,32.92
2018-07-03T14:39:00.050Z,32.82
2018-07-03T14:40:09.220Z,32.74
2018-07-03T14:41:18.379Z,32.82
2018-07-03T14:42:27.411Z,32.85
2018-07-03T14:43:36.289Z,32.88
2018-07-03T14:44:45.170Z,32.84
2018-07-03T14:45:54.056Z,32.84
2018-07-03T14:47:03.490Z,32.93
2018-07-03T14:48:12.371Z,32.96
2018-07-03T14:49:21.256Z,33
2018-07-03T14:50:30.147Z,33.12
2018-07-03T14:51:39.628Z,33.16
2018-07-03T14:52:48.505Z,33.26